Time;durP1;ratioP1;P1;durP2;ratioP2;P2;SDS_P1;SDS_P2;PMS_P1;PMS_P2;Temp;Humidity;BMP_temperature;BMP_pressure;BME280_temperature;BME280_humidity;BME280_pressure;Samples;Min_cycle;Max_cycle;Signal;HPM_P1;HPM_P2
2023/01/18 00:00:45;;;;;;;17.97;10.27;;;-3.30;99.90;;;;;;5054118;28;20493;-44
2023/01/18 00:03:12;;;;;;;18.37;8.97;;;-3.20;99.90;;;;;;5036259;28;20473;-42
2023/01/18 00:05:40;;;;;;;17.67;10.13;;;-3.20;99.90;;;;;;5054546;28;20199;-42
2023/01/18 00:08:10;;;;;;;18.63;10.17;;;-3.30;99.90;;;;;;5054150;28;20414;-43
2023/01/18 00:10:36;;;;;;;18.63;10.10;;;-3.30;99.90;;;;;;5054250;28;20406;-43
2023/01/18 00:13:03;;;;;;;16.10;10.33;;;-3.40;99.90;;;;;;5053842;28;20488;-42
2023/01/18 00:15:30;;;;;;;17.07;9.93;;;-3.40;99.90;;;;;;5053762;28;20260;-43
2023/01/18 00:17:56;;;;;;;17.60;9.50;;;-3.40;99.90;;;;;;5054097;28;20746;-45
2023/01/18 00:20:23;;;;;;;15.03;9.53;;;-3.40;99.90;;;;;;5053807;28;20410;-40
2023/01/18 00:22:50;;;;;;;16.10;10.50;;;-3.40;99.90;;;;;;5053681;28;20649;-40
2023/01/18 00:25:16;;;;;;;21.13;10.93;;;-3.40;99.90;;;;;;5053808;28;20411;-41
2023/01/18 00:27:48;;;;;;;16.37;10.57;;;-3.40;99.90;;;;;;5053968;28;20417;-43
2023/01/18 00:30:17;;;;;;;16.13;10.30;;;-3.40;99.90;;;;;;5036200;28;20548;-42
2023/01/18 00:32:47;;;;;;;25.00;11.30;;;-3.40;99.90;;;;;;5053529;28;20479;-41
2023/01/18 00:35:14;;;;;;;19.07;11.27;;;-3.40;99.90;;;;;;5053934;28;20886;-40
2023/01/18 00:37:40;;;;;;;17.97;10.30;;;-3.50;99.90;;;;;;5053372;28;20991;-43
2023/01/18 00:40:06;;;;;;;19.17;10.33;;;-3.50;99.90;;;;;;5053779;28;20419;-41
2023/01/18 00:45:16;;;;;;;20.77;11.23;;;-3.60;99.90;;;;;;5053503;28;20791;-45
2023/01/18 00:47:42;;;;;;;17.10;10.67;;;-3.60;99.90;;;;;;5053868;28;20431;-44
2023/01/18 00:50:08;;;;;;;15.77;10.20;;;-3.70;99.90;;;;;;5053657;28;20179;-42
2023/01/18 00:52:34;;;;;;;19.00;10.70;;;-3.70;99.90;;;;;;5053358;28;20204;-42
2023/01/18 00:55:02;;;;;;;22.37;11.30;;;-3.70;99.90;;;;;;5053246;28;20448;-42
2023/01/18 00:57:28;;;;;;;15.57;9.83;;;-3.70;99.90;;;;;;5053646;28;20571;-41
2023/01/18 00:59:54;;;;;;;22.07;11.73;;;-3.70;99.90;;;;;;5053252;28;20442;-43
2023/01/18 01:02:20;;;;;;;20.97;12.30;;;-3.60;99.90;;;;;;5053224;28;20199;-42
2023/01/18 01:07:29;;;;;;;17.57;11.73;;;-3.50;99.90;;;;;;5053704;28;20202;-42
2023/01/18 01:09:56;;;;;;;22.93;12.43;;;-3.50;99.90;;;;;;5053182;28;20425;-42
2023/01/18 01:26:09;;;;;;;19.53;12.03;;;-3.40;99.90;;;;;;5056974;28;20456;-41
2023/01/18 01:28:36;;;;;;;24.20;12.83;;;-3.40;99.90;;;;;;5056882;28;20452;-40
2023/01/18 01:31:04;;;;;;;22.07;12.83;;;-3.30;99.90;;;;;;5056886;28;20406;-40
2023/01/18 01:33:30;;;;;;;23.50;12.60;;;-3.30;99.90;;;;;;5056663;28;20505;-42
2023/01/18 01:35:58;;;;;;;21.83;12.93;;;-3.20;99.90;;;;;;5058262;28;20442;-41
2023/01/18 01:38:23;;;;;;;22.47;13.03;;;-3.20;99.90;;;;;;5058182;28;20441;-40
2023/01/18 01:41:26;;;;;;;25.07;14.80;;;-3.10;99.90;;;;;;5056657;28;20433;-43
2023/01/18 01:43:54;;;;;;;23.53;13.87;;;-3.10;99.90;;;;;;5056926;28;20200;-42
2023/01/18 01:46:22;;;;;;;23.80;14.40;;;-3.10;99.90;;;;;;5056795;28;20839;-40
2023/01/18 01:48:48;;;;;;;30.00;14.50;;;-3.00;99.90;;;;;;5056725;28;20463;-42
2023/01/18 01:51:17;;;;;;;24.80;14.43;;;-3.00;99.90;;;;;;5056425;28;20426;-41
2023/01/18 01:53:42;;;;;;;24.30;13.90;;;-3.00;99.90;;;;;;5056331;28;20209;-42
2023/01/18 01:56:09;;;;;;;26.27;15.93;;;-3.00;99.90;;;;;;5056338;28;20497;-40
2023/01/18 01:58:35;;;;;;;24.30;14.67;;;-3.00;99.90;;;;;;5056592;28;20191;-41
2023/01/18 02:01:00;;;;;;;26.77;15.60;;;-2.90;99.90;;;;;;5038681;28;20411;-43
2023/01/18 02:03:27;;;;;;;23.20;14.33;;;-2.90;99.90;;;;;;5038247;28;20452;-39
2023/01/18 02:06:01;;;;;;;28.07;15.93;;;-2.90;99.90;;;;;;5056506;28;20183;-44
2023/01/18 02:08:27;;;;;;;26.67;15.50;;;-2.90;99.90;;;;;;5056181;28;20872;-42
2023/01/18 02:10:53;;;;;;;27.33;15.60;;;-2.90;99.90;;;;;;5056437;28;20548;-41
2023/01/18 02:13:21;;;;;;;28.23;15.67;;;-2.90;99.90;;;;;;5055950;28;20219;-41
2023/01/18 02:16:10;;;;;;;29.07;17.17;;;-2.90;99.90;;;;;;5056316;28;20264;-43
2023/01/18 02:18:50;;;;;;;29.70;16.60;;;-2.90;99.90;;;;;;5056524;28;20398;-42
2023/01/18 02:21:19;;;;;;;31.10;16.50;;;-2.90;99.90;;;;;;5056135;28;20416;-43
2023/01/18 02:24:02;;;;;;;26.20;16.27;;;-2.90;99.90;;;;;;5056095;28;20415;-42
2023/01/18 02:26:52;;;;;;;30.83;16.20;;;-2.90;99.90;;;;;;5056198;28;20490;-43
2023/01/18 02:29:53;;;;;;;29.23;15.87;;;-3.00;99.90;;;;;;5056202;28;20906;-42
2023/01/18 02:32:28;;;;;;;26.00;15.93;;;-3.00;99.90;;;;;;5023863;28;20509;-41
2023/01/18 02:35:13;;;;;;;29.93;15.40;;;-3.00;99.90;;;;;;5054682;28;20448;-43
2023/01/18 02:38:03;;;;;;;28.60;16.40;;;-3.10;99.90;;;;;;5055476;28;20438;-45
2023/01/18 02:40:53;;;;;;;29.57;14.77;;;-3.10;99.90;;;;;;5055881;28;20442;-41
2023/01/18 02:49:03;;;;;;;30.67;15.80;;;-3.00;99.90;;;;;;5056010;28;20535;-44
2023/01/18 02:51:29;;;;;;;26.80;15.83;;;-3.00;99.90;;;;;;5055828;28;20413;-43
2023/01/18 02:53:56;;;;;;;25.43;15.67;;;-3.00;99.90;;;;;;5055334;28;20452;-43
2023/01/18 02:56:38;;;;;;;28.43;15.93;;;-3.00;99.90;;;;;;5055270;28;20259;-45
2023/01/18 02:59:07;;;;;;;27.70;16.20;;;-3.00;99.90;;;;;;5055866;28;20397;-43
2023/01/18 03:01:51;;;;;;;26.70;15.47;;;-3.00;99.90;;;;;;5055189;28;20510;-43
2023/01/18 03:04:43;;;;;;;31.77;15.17;;;-3.00;99.90;;;;;;5055345;28;20973;-44
2023/01/18 03:07:19;;;;;;;26.47;15.77;;;-3.00;99.90;;;;;;5055301;28;20400;-41
2023/01/18 03:09:45;;;;;;;26.20;15.87;;;-3.00;99.90;;;;;;5055341;28;20449;-42
2023/01/18 03:12:27;;;;;;;33.27;16.00;;;-3.10;99.90;;;;;;5055228;28;20436;-41
2023/01/18 03:15:12;;;;;;;25.40;15.13;;;-3.10;99.90;;;;;;5055153;28;20446;-44
2023/01/18 03:17:49;;;;;;;26.40;15.33;;;-3.00;99.90;;;;;;5055111;28;20464;-42
2023/01/18 03:20:24;;;;;;;23.17;14.90;;;-3.10;99.90;;;;;;5055111;28;20474;-42
2023/01/18 03:25:48;;;;;;;30.80;15.70;;;-3.10;99.90;;;;;;5055016;28;20891;-39
2023/01/18 03:34:28;;;;;;;26.30;14.60;;;-3.10;99.90;;;;;;5054841;28;20437;-40
2023/01/18 03:36:58;;;;;;;24.47;15.17;;;-3.10;99.90;;;;;;5054763;28;20404;-43
2023/01/18 03:39:32;;;;;;;28.20;16.00;;;-3.10;99.90;;;;;;5055047;28;20514;-41
2023/01/18 03:42:07;;;;;;;29.57;15.90;;;-3.10;99.90;;;;;;5054756;28;20425;-41
2023/01/18 03:44:37;;;;;;;27.73;15.27;;;-3.10;99.90;;;;;;5054610;28;20420;-42
2023/01/18 03:47:04;;;;;;;23.57;14.37;;;-3.20;99.90;;;;;;5054319;28;20442;-41
2023/01/18 03:49:32;;;;;;;26.37;14.20;;;-3.20;99.90;;;;;;5054324;28;20796;-42
2023/01/18 03:52:09;;;;;;;27.77;13.87;;;-3.20;99.90;;;;;;5044373;28;20536;-43
2023/01/18 03:54:43;;;;;;;22.57;14.13;;;-3.30;99.90;;;;;;5063912;28;20503;-44
2023/01/18 03:57:17;;;;;;;29.87;14.97;;;-3.30;99.90;;;;;;5065301;28;20387;-40
2023/01/18 03:59:44;;;;;;;30.10;14.43;;;-3.30;99.90;;;;;;5054984;28;20429;-43
2023/01/18 04:02:10;;;;;;;25.47;14.37;;;-3.30;99.90;;;;;;5054032;28;20443;-41
2023/01/18 04:04:35;;;;;;;27.23;14.63;;;-3.30;99.90;;;;;;5054347;28;20408;-41
2023/01/18 04:07:01;;;;;;;26.87;14.20;;;-3.30;99.90;;;;;;5053998;28;20193;-44
2023/01/18 04:09:27;;;;;;;30.23;15.40;;;-3.30;99.90;;;;;;5053842;28;20697;-42
2023/01/18 04:11:52;;;;;;;23.97;14.17;;;-3.30;99.90;;;;;;5054168;28;20284;-41
2023/01/18 04:14:18;;;;;;;26.03;14.93;;;-3.30;99.90;;;;;;5053771;28;20203;-42
2023/01/18 04:16:43;;;;;;;22.73;14.37;;;-3.30;99.90;;;;;;5053716;28;20189;-39
2023/01/18 04:19:09;;;;;;;26.90;15.40;;;-3.20;99.90;;;;;;5054043;28;20190;-42
2023/01/18 04:21:37;;;;;;;26.67;15.33;;;-3.20;99.90;;;;;;5053622;28;20634;-44
2023/01/18 04:24:03;;;;;;;26.57;14.70;;;-3.20;99.90;;;;;;5053779;28;20642;-40
2023/01/18 04:26:28;;;;;;;27.27;15.73;;;-3.20;99.90;;;;;;5053958;28;20425;-42
2023/01/18 04:28:54;;;;;;;27.03;15.07;;;-3.20;99.90;;;;;;5054008;28;20726;-44
2023/01/18 04:31:20;;;;;;;31.43;15.67;;;-3.20;99.90;;;;;;5055146;28;20181;-50
2023/01/18 04:33:50;;;;;;;30.83;14.70;;;-3.20;99.90;;;;;;5053502;28;20223;-49
2023/01/18 04:36:16;;;;;;;24.00;15.40;;;-3.20;99.90;;;;;;5053678;28;20425;-47
2023/01/18 04:38:42;;;;;;;30.67;14.70;;;-3.20;99.90;;;;;;5035519;28;20471;-48
2023/01/18 04:41:07;;;;;;;24.70;14.77;;;-3.20;99.90;;;;;;5053406;28;20455;-48
2023/01/18 04:43:33;;;;;;;27.80;15.93;;;-3.20;99.90;;;;;;5053394;28;20196;-46
2023/01/18 04:45:58;;;;;;;25.40;14.67;;;-3.20;99.90;;;;;;5053389;28;20178;-50
2023/01/18 04:48:24;;;;;;;23.23;13.17;;;-3.20;99.90;;;;;;5053492;28;20268;-46
2023/01/18 04:50:50;;;;;;;27.37;14.87;;;-3.20;99.90;;;;;;5035484;28;20227;-47
2023/01/18 04:53:17;;;;;;;24.93;14.70;;;-3.10;99.90;;;;;;5035453;28;20212;-46
2023/01/18 04:55:43;;;;;;;23.93;13.93;;;-3.10;99.90;;;;;;5035469;28;20415;-48
2023/01/18 04:58:09;;;;;;;27.93;16.30;;;-3.20;99.90;;;;;;5053007;28;20420;-46
2023/01/18 05:00:38;;;;;;;26.00;14.90;;;-3.10;99.90;;;;;;5053800;28;20426;-47
2023/01/18 05:03:07;;;;;;;24.53;13.60;;;-3.10;99.90;;;;;;5053119;28;20206;-47
2023/01/18 05:05:33;;;;;;;25.37;14.97;;;-3.10;99.90;;;;;;5053222;28;20424;-46
2023/01/18 05:07:58;;;;;;;26.30;14.80;;;-3.10;99.90;;;;;;5035534;28;20414;-47
2023/01/18 05:10:24;;;;;;;29.70;14.73;;;-3.10;99.90;;;;;;5053145;28;20209;-48
2023/01/18 05:12:49;;;;;;;25.57;13.73;;;-3.10;99.90;;;;;;5035458;28;20612;-47
2023/01/18 05:15:15;;;;;;;27.37;13.97;;;-3.10;99.90;;;;;;5053692;28;20194;-48
2023/01/18 05:17:40;;;;;;;28.47;13.77;;;-3.10;99.90;;;;;;5054739;28;20185;-48
2023/01/18 05:20:10;;;;;;;24.97;14.37;;;-3.10;99.90;;;;;;5054880;28;20170;-49
2023/01/18 05:22:36;;;;;;;26.87;15.80;;;-3.10;99.90;;;;;;5053329;28;20196;-47
2023/01/18 05:25:02;;;;;;;28.23;16.30;;;-3.10;99.90;;;;;;5053433;28;20484;-46
2023/01/18 05:27:28;;;;;;;30.20;16.17;;;-3.10;99.90;;;;;;5053112;28;20409;-48
2023/01/18 05:29:53;;;;;;;27.63;17.13;;;-3.10;99.90;;;;;;5053716;28;20462;-47
2023/01/18 05:32:19;;;;;;;33.43;16.63;;;-3.10;99.90;;;;;;5053650;28;20702;-47
2023/01/18 05:34:44;;;;;;;32.93;16.57;;;-3.10;99.90;;;;;;5053498;28;20205;-47
2023/01/18 05:37:10;;;;;;;28.07;16.70;;;-3.10;99.90;;;;;;5053104;28;20631;-48
2023/01/18 05:39:35;;;;;;;24.90;15.77;;;-3.10;99.90;;;;;;5053249;28;20173;-47
2023/01/18 05:42:01;;;;;;;22.93;14.37;;;-3.00;99.90;;;;;;5052848;28;20214;-48
2023/01/18 05:44:27;;;;;;;28.17;15.00;;;-3.00;99.90;;;;;;5052909;28;20179;-47
2023/01/18 05:46:52;;;;;;;30.43;15.70;;;-3.00;99.90;;;;;;5053057;28;20190;-47
2023/01/18 05:49:18;;;;;;;27.17;15.83;;;-3.00;99.90;;;;;;5053160;28;20189;-46
2023/01/18 05:51:43;;;;;;;27.10;14.93;;;-3.00;99.90;;;;;;5053074;28;20213;-47
2023/01/18 05:54:10;;;;;;;25.60;14.67;;;-3.00;99.90;;;;;;5052987;28;20202;-48
2023/01/18 05:56:36;;;;;;;33.00;16.30;;;-3.00;99.90;;;;;;5053069;28;20528;-47
2023/01/18 05:59:02;;;;;;;32.07;16.33;;;-3.00;99.90;;;;;;5052990;28;20507;-47
2023/01/18 06:01:28;;;;;;;31.27;16.13;;;-3.00;99.90;;;;;;5052641;28;20254;-49
2023/01/18 06:03:53;;;;;;;30.57;15.93;;;-2.90;99.90;;;;;;5052683;28;20466;-48
2023/01/18 06:06:19;;;;;;;29.73;16.00;;;-2.90;99.90;;;;;;5034761;28;20192;-47
2023/01/18 06:08:45;;;;;;;35.30;16.03;;;-2.90;99.90;;;;;;5053287;28;20425;-48
2023/01/18 06:11:10;;;;;;;31.50;16.70;;;-2.90;99.90;;;;;;5056313;28;20274;-47
2023/01/18 06:13:36;;;;;;;29.03;16.57;;;-2.90;99.90;;;;;;5056199;28;20202;-47
2023/01/18 06:16:02;;;;;;;28.10;15.77;;;-3.00;99.90;;;;;;5056301;28;20202;-48
2023/01/18 06:18:31;;;;;;;31.77;16.30;;;-3.00;99.90;;;;;;5056360;28;20267;-48
2023/01/18 06:20:58;;;;;;;33.63;16.17;;;-3.10;99.90;;;;;;5073171;22;20504;-49
2023/01/18 06:23:24;;;;;;;35.67;15.50;;;-3.10;99.90;;;;;;5063077;28;20448;-49
2023/01/18 06:25:50;;;;;;;24.43;14.30;;;-3.10;99.90;;;;;;5064696;28;20916;-46
2023/01/18 06:28:16;;;;;;;33.33;16.07;;;-3.10;99.90;;;;;;5064172;28;20203;-48
2023/01/18 06:30:42;;;;;;;24.90;13.57;;;-3.10;99.90;;;;;;5064620;28;20418;-49
2023/01/18 06:33:08;;;;;;;25.50;15.07;;;-3.10;99.90;;;;;;5046127;28;20460;-49
2023/01/18 06:35:35;;;;;;;28.27;14.77;;;-3.10;99.90;;;;;;5064390;28;20183;-48
2023/01/18 06:38:03;;;;;;;23.47;14.00;;;-3.10;99.90;;;;;;5064528;28;20423;-48
2023/01/18 06:40:29;;;;;;;27.67;13.50;;;-3.00;99.90;;;;;;5068049;28;20413;-49
2023/01/18 06:42:55;;;;;;;26.87;14.53;;;-3.00;99.90;;;;;;5064073;28;20459;-49
2023/01/18 06:45:21;;;;;;;29.13;15.07;;;-3.00;99.90;;;;;;5062742;28;20179;-48
2023/01/18 06:47:50;;;;;;;29.93;14.73;;;-2.90;99.90;;;;;;5062558;28;20178;-47
2023/01/18 06:50:17;;;;;;;25.43;14.80;;;-2.90;99.90;;;;;;5062378;28;20193;-46
2023/01/18 06:52:43;;;;;;;26.40;15.27;;;-2.90;99.90;;;;;;5062320;28;20928;-49
2023/01/18 06:55:10;;;;;;;29.40;15.03;;;-2.80;99.90;;;;;;5061842;28;20205;-49
2023/01/18 06:57:35;;;;;;;25.87;13.47;;;-2.80;99.90;;;;;;5061602;28;20413;-50
2023/01/18 07:00:05;;;;;;;28.27;15.60;;;-2.80;99.90;;;;;;5062035;28;20437;-50
2023/01/18 07:02:31;;;;;;;35.57;15.17;;;-2.80;99.90;;;;;;5061375;28;20197;-48
2023/01/18 07:04:57;;;;;;;27.10;14.63;;;-2.80;99.90;;;;;;5061017;28;20408;-48
2023/01/18 07:07:23;;;;;;;29.80;15.17;;;-2.80;99.90;;;;;;5060730;28;20421;-48
2023/01/18 07:09:48;;;;;;;23.73;14.53;;;-2.80;99.90;;;;;;5060922;28;20269;-49
2023/01/18 07:12:14;;;;;;;39.00;15.73;;;-2.80;99.90;;;;;;5043600;28;20202;-48
2023/01/18 07:14:40;;;;;;;30.43;15.03;;;-2.80;99.90;;;;;;5061992;28;20282;-49
2023/01/18 07:17:05;;;;;;;30.43;17.03;;;-2.80;99.90;;;;;;5060470;28;20179;-49
2023/01/18 07:19:31;;;;;;;28.47;16.00;;;-2.80;99.90;;;;;;5058851;28;20192;-49
2023/01/18 07:21:57;;;;;;;30.10;15.67;;;-2.80;99.90;;;;;;5061365;28;20205;-49
2023/01/18 07:24:23;;;;;;;28.23;15.00;;;-2.80;99.90;;;;;;5059286;28;20175;-48
2023/01/18 07:26:48;;;;;;;32.13;16.20;;;-2.80;99.90;;;;;;5058516;28;20431;-49
2023/01/18 07:29:14;;;;;;;29.83;15.67;;;-2.80;99.90;;;;;;5057961;28;20198;-49
2023/01/18 07:31:40;;;;;;;29.13;17.40;;;-2.80;99.90;;;;;;5054817;28;20199;-45
2023/01/18 07:34:07;;;;;;;30.43;15.90;;;-2.70;99.90;;;;;;5054519;28;20210;-45
2023/01/18 07:36:33;;;;;;;29.37;16.20;;;-2.80;99.90;;;;;;5055321;28;20185;-45
2023/01/18 07:39:00;;;;;;;33.90;16.73;;;-2.80;99.90;;;;;;5054745;28;20422;-45
2023/01/18 07:41:25;;;;;;;29.17;15.67;;;-2.80;99.90;;;;;;5054270;28;20560;-45
2023/01/18 07:43:52;;;;;;;29.17;16.40;;;-2.80;99.90;;;;;;5054607;28;20514;-43
2023/01/18 07:46:21;;;;;;;29.90;15.73;;;-2.70;99.90;;;;;;5054391;28;20248;-45
2023/01/18 07:48:47;;;;;;;27.70;17.03;;;-2.80;99.90;;;;;;5054208;28;20780;-43
2023/01/18 07:51:13;;;;;;;30.90;17.83;;;-2.80;99.90;;;;;;5054464;28;20910;-45
2023/01/18 07:53:39;;;;;;;31.27;17.40;;;-2.80;99.90;;;;;;5054078;28;20470;-44
2023/01/18 07:56:09;;;;;;;28.70;17.40;;;-2.80;99.90;;;;;;5055032;28;20431;-45
2023/01/18 07:58:35;;;;;;;31.13;16.97;;;-2.80;99.90;;;;;;5054475;28;20274;-45
2023/01/18 08:01:06;;;;;;;35.33;17.07;;;-2.70;99.90;;;;;;5054095;28;20502;-46
2023/01/18 08:03:32;;;;;;;34.03;14.77;;;-2.70;99.90;;;;;;5054201;28;20212;-44
2023/01/18 08:05:59;;;;;;;31.63;15.00;;;-2.70;99.90;;;;;;5053913;28;20427;-46
2023/01/18 08:08:27;;;;;;;25.00;14.50;;;-2.60;99.90;;;;;;5053934;28;20519;-45
2023/01/18 08:10:56;;;;;;;30.47;15.67;;;-2.60;99.90;;;;;;5053935;28;20417;-44
2023/01/18 08:13:23;;;;;;;36.17;16.13;;;-2.50;99.90;;;;;;5053794;28;20970;-44
2023/01/18 08:15:48;;;;;;;29.97;15.43;;;-2.50;99.90;;;;;;5053744;28;20426;-44
2023/01/18 08:18:14;;;;;;;31.93;15.50;;;-2.40;99.90;;;;;;5053688;28;20426;-45
2023/01/18 08:20:44;;;;;;;30.23;16.63;;;-2.40;99.90;;;;;;5053616;28;20199;-45
2023/01/18 08:23:09;;;;;;;29.70;15.87;;;-2.40;99.90;;;;;;5053672;28;20297;-45
2023/01/18 08:25:35;;;;;;;28.00;15.40;;;-2.30;99.90;;;;;;5054210;28;20450;-45
2023/01/18 08:28:02;;;;;;;29.17;16.37;;;-2.30;99.90;;;;;;5053983;28;20186;-43
2023/01/18 08:30:30;;;;;;;29.37;15.93;;;-2.30;99.90;;;;;;5054925;28;20186;-45
2023/01/18 08:32:58;;;;;;;28.23;16.07;;;-2.20;99.90;;;;;;5053317;28;20791;-46
2023/01/18 08:35:26;;;;;;;30.13;15.93;;;-2.20;99.90;;;;;;5055675;28;20469;-45
2023/01/18 08:37:51;;;;;;;27.03;15.43;;;-2.10;99.90;;;;;;5054678;28;20500;-46
2023/01/18 08:40:22;;;;;;;30.60;16.30;;;-2.00;99.90;;;;;;5054290;28;20512;-46
2023/01/18 08:42:48;;;;;;;33.83;16.43;;;-2.00;99.90;;;;;;5053626;28;20258;-46
2023/01/18 08:45:14;;;;;;;34.03;16.80;;;-2.00;99.90;;;;;;5053346;28;20448;-46
2023/01/18 08:47:40;;;;;;;31.83;16.47;;;-1.90;99.90;;;;;;5035453;28;20861;-44
2023/01/18 08:50:08;;;;;;;30.37;17.00;;;-1.90;99.90;;;;;;5053561;28;20505;-46
2023/01/18 08:52:35;;;;;;;29.90;15.60;;;-1.80;99.90;;;;;;5053110;28;20683;-44
2023/01/18 08:55:05;;;;;;;36.30;16.83;;;-1.80;99.90;;;;;;5053408;28;20469;-46
2023/01/18 08:57:30;;;;;;;28.03;16.83;;;-1.70;99.90;;;;;;5053124;28;20438;-45
2023/01/18 08:59:56;;;;;;;34.77;16.77;;;-1.70;99.90;;;;;;5053289;28;20415;-46
2023/01/18 09:02:23;;;;;;;35.67;15.87;;;-1.60;99.90;;;;;;5053047;28;20204;-46
2023/01/18 09:04:49;;;;;;;29.00;16.10;;;-1.50;99.90;;;;;;5053700;28;20583;-46
2023/01/18 09:07:15;;;;;;;29.90;15.90;;;-1.50;99.90;;;;;;5053418;28;20426;-45
2023/01/18 09:09:40;;;;;;;33.00;17.63;;;-1.40;99.90;;;;;;5053172;28;20723;-45
2023/01/18 09:12:06;;;;;;;34.30;16.47;;;-1.40;99.90;;;;;;5053220;28;20517;-46
2023/01/18 09:14:32;;;;;;;36.80;17.43;;;-1.40;99.90;;;;;;5052986;28;20339;-46
2023/01/18 09:16:57;;;;;;;25.63;15.50;;;-1.40;99.90;;;;;;5053181;28;20185;-46
2023/01/18 09:19:23;;;;;;;29.77;16.73;;;-1.30;99.90;;;;;;5054382;28;20177;-49
2023/01/18 09:21:50;;;;;;;29.30;15.83;;;-1.30;99.90;;;;;;5054291;28;20215;-49
2023/01/18 09:24:15;;;;;;;28.87;16.67;;;-1.30;99.90;;;;;;5055995;28;20178;-49
2023/01/18 09:26:41;;;;;;;29.17;16.70;;;-1.20;99.90;;;;;;5055949;28;20411;-47
2023/01/18 09:29:07;;;;;;;31.73;17.00;;;-1.20;99.90;;;;;;5056924;28;20188;-49
2023/01/18 09:31:32;;;;;;;30.57;15.57;;;-1.20;99.90;;;;;;5057144;28;20257;-50
2023/01/18 09:33:58;;;;;;;31.17;16.30;;;-1.10;99.90;;;;;;5056810;28;20208;-49
2023/01/18 09:36:27;;;;;;;30.20;16.23;;;-1.10;99.90;;;;;;5056423;28;20536;-49
2023/01/18 09:38:54;;;;;;;28.67;16.17;;;-1.10;99.90;;;;;;5057567;28;20248;-49
2023/01/18 09:41:30;;;;;;;31.43;16.80;;;-1.00;99.90;;;;;;5057289;28;20473;-49
2023/01/18 09:44:04;;;;;;;28.67;16.07;;;-1.00;99.90;;;;;;5059954;28;20826;-49
2023/01/18 09:46:35;;;;;;;29.00;16.83;;;-1.00;99.90;;;;;;5061913;28;20452;-50
2023/01/18 09:49:05;;;;;;;31.53;15.93;;;-1.00;99.90;;;;;;5061237;28;20403;-49
2023/01/18 09:51:44;;;;;;;34.33;17.47;;;-0.90;99.90;;;;;;5061657;28;20517;-48
2023/01/18 09:54:28;;;;;;;31.03;17.17;;;-0.90;99.90;;;;;;5062281;28;20446;-50
2023/01/18 09:57:02;;;;;;;36.53;16.97;;;-0.90;99.90;;;;;;5062004;28;20395;-49
2023/01/18 09:59:47;;;;;;;30.57;17.27;;;-0.80;99.90;;;;;;5061940;28;21026;-50
2023/01/18 10:02:22;;;;;;;29.80;17.97;;;-0.80;99.90;;;;;;5044352;28;20493;-50
2023/01/18 10:04:53;;;;;;;38.53;19.33;;;-0.70;99.90;;;;;;5044983;28;20434;-50
2023/01/18 10:07:22;;;;;;;32.23;17.40;;;-0.60;99.90;;;;;;5063296;28;20414;-50
2023/01/18 10:09:52;;;;;;;28.57;17.20;;;-0.50;99.90;;;;;;5063139;28;20426;-48
2023/01/18 10:12:37;;;;;;;30.70;16.73;;;-0.40;99.90;;;;;;5045687;28;20466;-50
2023/01/18 10:15:19;;;;;;;33.97;18.83;;;-0.30;99.90;;;;;;5063163;28;20882;-49
2023/01/18 10:17:46;;;;;;;35.43;18.07;;;-0.30;99.90;;;;;;5062221;28;20407;-48
2023/01/18 10:20:18;;;;;;;22.67;14.73;;;-0.20;99.90;;;;;;5043010;28;20538;-49
2023/01/18 10:22:49;;;;;;;28.00;15.47;;;-0.10;99.90;;;;;;5060740;28;20442;-49
2023/01/18 10:25:41;;;;;;;28.30;16.03;;;-0.10;99.90;;;;;;5060358;28;20799;-49
2023/01/18 10:28:06;;;;;;;24.63;14.13;;;0.00;99.90;;;;;;5059989;28;20414;-49
2023/01/18 10:30:57;;;;;;;28.20;15.70;;;0.00;99.90;;;;;;5059546;28;20891;-50
2023/01/18 10:33:26;;;;;;;26.50;16.17;;;0.10;99.90;;;;;;5060249;28;20204;-49
2023/01/18 10:35:56;;;;;;;26.10;15.97;;;0.20;99.90;;;;;;5059429;28;20411;-50
2023/01/18 10:38:25;;;;;;;28.63;17.83;;;0.20;99.90;;;;;;5058945;28;20415;-46
2023/01/18 10:40:59;;;;;;;26.10;16.00;;;0.20;99.90;;;;;;5058970;28;20765;-50
2023/01/18 10:43:27;;;;;;;29.93;16.27;;;0.30;99.90;;;;;;5058418;28;20966;-47
2023/01/18 10:45:53;;;;;;;33.47;17.43;;;0.40;99.90;;;;;;5059054;28;20489;-49
2023/01/18 10:48:18;;;;;;;28.93;16.83;;;0.40;99.90;;;;;;5058732;28;20407;-49
2023/01/18 10:50:47;;;;;;;28.83;15.80;;;0.40;99.90;;;;;;5057948;28;20267;-48
2023/01/18 10:53:37;;;;;;;24.17;15.17;;;0.50;99.90;;;;;;5057251;28;20209;-50
2023/01/18 10:56:08;;;;;;;25.50;16.10;;;0.60;99.90;;;;;;5056941;28;20444;-49
2023/01/18 10:58:56;;;;;;;31.37;16.33;;;0.70;99.90;;;;;;5056953;28;20445;-49
2023/01/18 11:01:26;;;;;;;27.77;15.17;;;0.80;99.90;;;;;;5056887;28;20435;-50
2023/01/18 11:04:15;;;;;;;25.33;16.50;;;0.90;99.90;;;;;;5056917;28;20416;-49
2023/01/18 11:07:09;;;;;;;28.30;16.87;;;0.90;99.90;;;;;;5045831;28;20462;-50
2023/01/18 11:09:50;;;;;;;26.20;15.47;;;1.10;99.90;;;;;;5056629;28;20396;-50
2023/01/18 11:12:41;;;;;;;26.77;16.63;;;1.10;99.90;;;;;;5056610;28;20462;-50
2023/01/18 11:15:13;;;;;;;24.67;14.80;;;1.20;99.90;;;;;;5058355;28;20452;-49
2023/01/18 11:17:40;;;;;;;23.60;14.90;;;1.40;99.90;;;;;;5058850;28;20764;-48
2023/01/18 11:20:14;;;;;;;26.40;14.50;;;1.40;99.90;;;;;;5058964;28;20424;-49
2023/01/18 11:22:52;;;;;;;25.47;15.30;;;1.50;99.90;;;;;;5059738;28;20433;-49
2023/01/18 11:25:17;;;;;;;23.27;13.43;;;1.50;99.90;;;;;;5059285;28;20393;-47
2023/01/18 11:27:44;;;;;;;23.53;13.37;;;1.60;99.90;;;;;;5058672;28;20784;-50
2023/01/18 11:30:23;;;;;;;19.57;12.37;;;1.60;99.90;;;;;;5059882;28;20178;-50
2023/01/18 11:32:50;;;;;;;21.63;14.17;;;1.70;99.90;;;;;;5061112;28;20194;-50
2023/01/18 11:35:31;;;;;;;23.10;13.87;;;1.80;99.90;;;;;;5061769;28;20216;-48
2023/01/18 11:38:09;;;;;;;28.03;14.33;;;1.90;99.90;;;;;;5061925;28;20165;-48
2023/01/18 11:40:35;;;;;;;23.47;14.13;;;1.90;99.90;;;;;;5062517;28;20232;-48
2023/01/18 11:43:21;;;;;;;25.47;13.47;;;2.00;99.90;;;;;;5061754;28;20590;-49
2023/01/18 11:45:54;;;;;;;15.87;10.93;;;2.00;99.90;;;;;;5061628;28;20156;-47
2023/01/18 11:48:50;;;;;;;18.07;12.70;;;2.10;99.90;;;;;;5056843;28;20630;-47
2023/01/18 11:51:37;;;;;;;18.60;12.17;;;2.20;99.90;;;;;;5060732;28;20167;-50
2023/01/18 11:54:25;;;;;;;17.43;12.07;;;2.20;99.90;;;;;;5060855;28;20600;-48
2023/01/18 11:56:58;;;;;;;20.73;11.90;;;2.30;99.90;;;;;;5060638;28;20184;-49
2023/01/18 11:59:35;;;;;;;16.80;10.83;;;2.40;99.90;;;;;;5060603;28;20188;-49
2023/01/18 12:02:39;;;;;;;20.23;12.00;;;2.50;99.90;;;;;;5059742;28;20199;-49
2023/01/18 12:05:26;;;;;;;17.53;9.87;;;2.50;99.90;;;;;;5043631;28;20193;-49
2023/01/18 12:08:19;;;;;;;17.40;10.63;;;2.60;99.90;;;;;;5060992;28;20157;-48
2023/01/18 12:11:12;;;;;;;15.30;10.63;;;2.70;99.90;;;;;;5061624;28;20176;-50
2023/01/18 12:13:48;;;;;;;13.03;9.20;;;2.70;99.90;;;;;;5060318;28;20208;-50
2023/01/18 12:16:28;;;;;;;13.80;9.37;;;2.80;99.90;;;;;;5057626;28;20635;-49
2023/01/18 12:19:38;;;;;;;15.80;10.03;;;2.90;99.90;;;;;;5058010;28;20521;-49
2023/01/18 12:22:25;;;;;;;14.17;9.70;;;3.00;99.90;;;;;;5059776;28;20208;-50
2023/01/18 12:25:12;;;;;;;14.70;9.63;;;3.10;99.90;;;;;;5061708;28;20231;-50
2023/01/18 12:27:46;;;;;;;14.43;9.10;;;3.10;99.90;;;;;;5060905;28;20175;-49
2023/01/18 12:30:26;;;;;;;16.43;9.40;;;3.20;99.90;;;;;;5061504;28;20684;-49
2023/01/18 12:32:56;;;;;;;15.13;9.67;;;3.30;99.90;;;;;;5060642;28;20202;-49
2023/01/18 12:35:32;;;;;;;12.77;8.90;;;3.30;99.90;;;;;;5060283;28;20196;-49
2023/01/18 12:38:21;;;;;;;14.47;8.97;;;3.40;99.90;;;;;;5060619;28;20215;-50
2023/01/18 12:41:09;;;;;;;13.30;8.70;;;3.50;99.90;;;;;;5060040;28;20161;-49
2023/01/18 12:44:04;;;;;;;11.20;7.93;;;3.50;99.90;;;;;;5059486;28;20271;-49
2023/01/18 12:47:00;;;;;;;12.93;9.57;;;3.60;99.90;;;;;;5058268;28;20258;-48
2023/01/18 12:49:31;;;;;;;12.13;8.27;;;3.70;99.90;;;;;;5058247;28;20178;-48
2023/01/18 12:52:00;;;;;;;15.03;8.63;;;3.80;99.90;;;;;;5058447;28;20206;-48
2023/01/18 12:54:38;;;;;;;17.20;8.90;;;3.80;99.90;;;;;;5057577;28;20216;-49
2023/01/18 12:57:05;;;;;;;13.90;9.10;;;3.80;99.90;;;;;;5057005;28;20176;-49
2023/01/18 12:59:53;;;;;;;12.80;8.40;;;3.90;99.90;;;;;;5039108;28;20182;-50
2023/01/18 13:02:25;;;;;;;13.30;8.83;;;3.90;99.90;;;;;;5055623;28;20200;-49
2023/01/18 13:05:05;;;;;;;14.10;9.17;;;4.00;99.90;;;;;;5055871;28;20538;-50
2023/01/18 13:07:37;;;;;;;17.83;8.27;;;4.00;99.90;;;;;;5054630;28;20175;-49
2023/01/18 13:10:09;;;;;;;13.87;8.20;;;4.10;99.90;;;;;;5054072;28;20265;-50
2023/01/18 13:12:35;;;;;;;14.63;8.97;;;4.10;99.90;;;;;;5053992;28;20204;-50
2023/01/18 13:15:14;;;;;;;13.17;8.57;;;4.10;99.90;;;;;;5053811;28;20219;-50
2023/01/18 13:17:50;;;;;;;14.13;8.57;;;4.20;99.90;;;;;;5054771;28;20161;-52
2023/01/18 13:20:21;;;;;;;13.37;8.67;;;4.30;99.90;;;;;;5058079;28;20188;-51
2023/01/18 13:23:28;;;;;;;13.30;9.47;;;4.30;99.90;;;;;;5058441;28;20208;-48